Time;durP1;ratioP1;P1;durP2;ratioP2;P2;SDS_P1;SDS_P2;PMS_P1;PMS_P2;Temp;Humidity;BMP_temperature;BMP_pressure;BME280_temperature;BME280_humidity;BME280_pressure;Samples;Min_cycle;Max_cycle;Signal;HPM_P1;HPM_P2
2023/06/29 00:02:18;;;;;;;3.70;2.95;;;;;;;20.43;45.95;93584.63;4986598;28;20042;-88
2023/06/29 00:04:44;;;;;;;4.53;3.00;;;;;;;20.43;46.10;93579.13;4985230;28;20487;-88
2023/06/29 00:07:09;;;;;;;4.05;3.03;;;;;;;20.42;46.13;93574.91;5005523;28;20081;-88
2023/06/29 00:09:34;;;;;;;3.53;2.85;;;;;;;20.43;46.07;93587.38;4991133;28;20266;-89
2023/06/29 00:12:00;;;;;;;4.10;3.08;;;;;;;20.44;46.13;93588.13;4986157;28;20053;-89
2023/06/29 00:14:25;;;;;;;3.15;2.67;;;;;;;20.41;46.19;93584.41;4972737;28;20045;-90
2023/06/29 00:16:51;;;;;;;3.42;2.85;;;;;;;20.41;46.18;93581.66;4971036;28;20034;-89
2023/06/29 00:19:17;;;;;;;3.40;2.80;;;;;;;20.42;46.07;93579.66;4980521;28;20038;-89
2023/06/29 00:21:42;;;;;;;3.47;3.13;;;;;;;20.45;46.31;93581.38;5005575;28;20344;-88
2023/06/29 00:24:11;;;;;;;3.17;2.88;;;;;;;20.42;46.29;93585.88;4996462;28;20059;-89
2023/06/29 00:26:38;;;;;;;3.05;2.70;;;;;;;20.41;46.24;93581.66;4990269;28;20057;-89
2023/06/29 00:29:03;;;;;;;3.38;2.75;;;;;;;20.44;46.37;93579.88;4988832;28;20046;-88
2023/06/29 00:31:28;;;;;;;4.00;2.70;;;;;;;20.43;46.33;93579.13;5005920;28;20045;-89
2023/06/29 00:33:54;;;;;;;3.45;2.55;;;;;;;20.44;46.22;93580.63;4970521;28;20552;-90
2023/06/29 00:36:19;;;;;;;3.63;2.88;;;;;;;20.41;46.21;93578.16;4981916;28;20523;-90
2023/06/29 00:38:45;;;;;;;2.63;2.42;;;;;;;20.41;45.82;93581.66;4975445;28;20050;-89
2023/06/29 00:41:10;;;;;;;3.15;2.60;;;;;;;20.43;45.92;93589.38;4981301;28;20038;-89
2023/06/29 00:43:36;;;;;;;3.45;3.00;;;;;;;20.40;46.16;93582.91;5001213;28;20049;-89
2023/06/29 00:46:07;;;;;;;2.85;2.63;;;;;;;20.40;46.06;93582.91;4989702;28;20046;-89
2023/06/29 00:48:33;;;;;;;4.22;2.72;;;;;;;20.41;46.11;93576.16;4985160;28;20496;-89
2023/06/29 00:50:59;;;;;;;2.72;2.28;;;;;;;20.40;45.97;93582.16;4985404;28;20042;-89
2023/06/29 00:53:24;;;;;;;5.00;2.70;;;;;;;20.40;46.07;93573.94;4973134;28;20848;-89
2023/06/29 00:55:50;;;;;;;2.83;2.50;;;;;;;20.41;46.11;93581.66;4987842;28;20045;-88
2023/06/29 00:58:16;;;;;;;5.40;3.70;;;;;;;20.38;46.17;93573.72;4983827;28;20096;-89
2023/06/29 01:00:41;;;;;;;2.83;2.55;;;;;;;20.40;46.27;93574.69;4983427;28;20160;-89
2023/06/29 01:03:09;;;;;;;3.63;2.40;;;;;;;20.40;46.40;93573.94;4988709;28;20504;-89
2023/06/29 01:05:34;;;;;;;3.65;2.55;;;;;;;20.40;46.58;93576.69;4988343;28;20069;-89
2023/06/29 01:08:13;;;;;;;3.00;2.30;;;;;;;20.39;46.26;93573.19;4990109;28;20042;-89
2023/06/29 01:10:38;;;;;;;4.15;2.40;;;;;;;20.40;46.10;93571.94;4973932;28;20045;-89
2023/06/29 01:13:04;;;;;;;2.38;2.17;;;;;;;20.39;46.39;93572.44;4978534;28;20042;-89
2023/06/29 01:15:29;;;;;;;3.13;2.83;;;;;;;20.38;46.23;93557.97;4986113;28;20903;-88
2023/06/29 01:17:55;;;;;;;3.70;2.80;;;;;;;20.39;46.01;93564.22;4990677;28;20065;-89
2023/06/29 01:20:20;;;;;;;3.15;2.63;;;;;;;20.39;46.19;93564.97;4987375;28;20049;-89
2023/06/29 01:22:58;;;;;;;2.25;2.05;;;;;;;20.38;46.32;93557.97;5004658;28;20045;-89
2023/06/29 01:25:24;;;;;;;2.55;2.28;;;;;;;20.40;46.32;93571.19;4989552;28;20088;-89
2023/06/29 01:27:50;;;;;;;3.53;2.75;;;;;;;20.40;46.20;93568.44;4988444;28;20046;-89
2023/06/29 01:30:15;;;;;;;3.47;2.40;;;;;;;20.39;46.54;93555.97;5005185;28;20042;-89
2023/06/29 01:32:41;;;;;;;3.15;2.20;;;;;;;20.39;46.35;93553.97;4989270;28;20042;-89
2023/06/29 01:35:08;;;;;;;3.65;2.85;;;;;;;20.37;46.53;93559.25;4987690;28;20381;-88
2023/06/29 01:37:45;;;;;;;3.70;3.03;;;;;;;20.38;46.46;93557.97;4973567;28;20516;-90
2023/06/29 01:40:10;;;;;;;3.53;2.72;;;;;;;20.40;46.31;93554.72;4973916;28;20053;-89
2023/06/29 01:42:36;;;;;;;3.35;2.40;;;;;;;20.38;46.43;93552.50;4991124;28;20038;-90
2023/06/29 01:45:03;;;;;;;2.90;2.65;;;;;;;20.37;46.28;93548.25;4993779;28;20460;-89
2023/06/29 01:47:28;;;;;;;2.70;2.40;;;;;;;20.35;46.21;93558.28;5009012;28;20030;-88
2023/06/29 01:49:54;;;;;;;3.15;2.30;;;;;;;20.38;46.52;93551.75;4994678;28;20042;-89
2023/06/29 01:52:19;;;;;;;2.30;2.10;;;;;;;20.39;46.31;93551.22;5001159;28;20048;-90
2023/06/29 01:54:44;;;;;;;4.45;2.83;;;;;;;20.39;46.54;93555.97;5009887;28;20336;-89
2023/06/29 01:57:10;;;;;;;2.47;2.10;;;;;;;20.37;46.34;93556.50;4991552;28;20512;-89
2023/06/29 01:59:35;;;;;;;2.75;2.17;;;;;;;20.36;46.35;93544.00;4993549;28;20057;-89
2023/06/29 02:02:01;;;;;;;2.63;2.42;;;;;;;20.38;46.64;93554.50;4991296;28;20121;-89
2023/06/29 02:04:26;;;;;;;2.97;2.58;;;;;;;20.40;46.35;93551.97;4991201;28;20756;-89
2023/06/29 02:06:51;;;;;;;2.10;1.90;;;;;;;20.38;46.45;93549.00;4992933;28;20053;-89
2023/06/29 02:09:17;;;;;;;2.45;2.25;;;;;;;20.38;46.41;93544.25;4973034;28;20114;-88
2023/06/29 02:11:42;;;;;;;2.20;1.90;;;;;;;20.37;46.34;93547.50;4966709;28;20038;-89
2023/06/29 02:14:08;;;;;;;3.13;2.42;;;;;;;20.39;46.48;93547.75;4991376;28;20042;-90
2023/06/29 02:16:33;;;;;;;3.13;2.55;;;;;;;20.37;46.05;93550.25;4976528;28;20049;-90
2023/06/29 02:18:59;;;;;;;2.10;1.90;;;;;;;20.36;46.28;93556.97;4992101;28;20049;-89
2023/06/29 02:21:24;;;;;;;2.55;2.08;;;;;;;20.36;46.28;93546.75;4992371;28;20591;-89
2023/06/29 02:23:49;;;;;;;2.97;2.10;;;;;;;20.35;45.99;93550.03;4976070;28;20050;-88
2023/06/29 02:26:15;;;;;;;3.28;2.50;;;;;;;20.36;46.04;93548.75;4984744;28;20519;-90
2023/06/29 02:28:40;;;;;;;3.60;2.40;;;;;;;20.34;46.30;93545.81;4972995;28;20790;-89
2023/06/29 02:31:06;;;;;;;3.10;2.20;;;;;;;20.36;46.39;93552.22;4976771;28;20099;-89
2023/06/29 02:33:31;;;;;;;2.50;2.13;;;;;;;20.35;46.72;93544.53;4987720;28;20050;-90
2023/06/29 02:35:57;;;;;;;2.20;1.90;;;;;;;20.35;46.30;93548.00;4960226;28;20463;-89
2023/06/29 02:38:22;;;;;;;2.08;1.80;;;;;;;20.34;46.43;93552.03;4992914;28;20053;-89
2023/06/29 02:40:47;;;;;;;2.38;2.08;;;;;;;20.33;46.28;93545.06;4975323;28;20033;-89
2023/06/29 02:43:15;;;;;;;2.13;1.92;;;;;;;20.35;46.30;93545.25;4984949;28;20039;-89
2023/06/29 02:45:40;;;;;;;2.33;2.05;;;;;;;20.36;46.69;93546.00;4993671;28;20111;-89
2023/06/29 02:48:05;;;;;;;2.67;2.20;;;;;;;20.35;46.27;93553.50;4990019;28;20488;-90
2023/06/29 02:50:31;;;;;;;2.40;2.20;;;;;;;20.33;46.32;93547.81;5008619;28;20434;-89
2023/06/29 02:52:56;;;;;;;3.13;2.10;;;;;;;20.35;46.55;93544.53;5008366;28;20071;-89
2023/06/29 02:55:22;;;;;;;2.80;2.15;;;;;;;20.35;46.19;93544.53;4978991;28;20042;-88
2023/06/29 02:57:47;;;;;;;2.92;2.22;;;;;;;20.34;46.34;93554.03;4978254;28;20041;-89
2023/06/29 03:00:13;;;;;;;3.22;2.00;;;;;;;20.33;46.22;93545.06;4991626;28;20030;-88
2023/06/29 03:02:39;;;;;;;2.35;2.03;;;;;;;20.35;46.30;93552.78;5007083;28;20197;-89
2023/06/29 03:05:04;;;;;;;2.47;2.08;;;;;;;20.34;46.37;93545.81;4991591;28;20029;-89
2023/06/29 03:07:32;;;;;;;2.15;1.85;;;;;;;20.33;46.52;93547.81;4990764;28;20512;-89
2023/06/29 03:09:57;;;;;;;2.25;1.90;;;;;;;20.33;46.35;93547.81;4991397;28;20045;-88
2023/06/29 03:12:23;;;;;;;3.30;2.22;;;;;;;20.34;46.56;93543.81;4990600;28;20034;-89
2023/06/29 03:14:48;;;;;;;2.90;2.08;;;;;;;20.35;46.27;93550.75;4968469;28;20078;-89
2023/06/29 03:17:14;;;;;;;3.10;2.00;;;;;;;20.33;46.13;93547.06;4986868;28;20046;-89
2023/06/29 03:19:40;;;;;;;2.58;1.95;;;;;;;20.33;46.31;93550.56;4991452;28;20041;-88
2023/06/29 03:22:06;;;;;;;2.55;1.50;;;;;;;20.35;46.37;93545.25;4991280;28;20539;-89
2023/06/29 03:24:31;;;;;;;2.47;1.80;;;;;;;20.33;46.13;93542.31;4982928;28;20042;-89
2023/06/29 03:26:57;;;;;;;2.47;2.08;;;;;;;20.35;45.65;93539.06;4991183;28;20046;-88
2023/06/29 03:29:22;;;;;;;5.15;2.33;;;;;;;20.35;46.05;93550.03;5007325;28;20057;-88
2023/06/29 03:31:48;;;;;;;384.50;302.63;;;;;;;20.38;45.90;93552.50;4991529;28;20038;-87
2023/06/29 03:34:13;;;;;;;98.03;86.43;;;;;;;20.45;45.97;93535.44;5001681;28;20072;-88
2023/06/29 03:36:39;;;;;;;3.20;2.85;;;;;;;20.42;45.79;93546.69;4991851;28;20050;-89
2023/06/29 03:39:04;;;;;;;12.73;3.17;;;;;;;20.44;45.85;93541.44;5008324;28;20046;-88
2023/06/29 03:41:30;;;;;;;19.67;12.13;;;;;;;20.33;44.53;93541.56;5007819;28;20068;-88
2023/06/29 03:43:55;;;;;;;18.27;10.60;;;;;;;20.24;43.48;93544.69;4990147;28;20423;-89
2023/06/29 03:46:21;;;;;;;56.90;34.13;;;;;;;20.18;43.89;93548.22;4987369;28;20049;-91
2023/06/29 03:48:47;;;;;;;17.58;11.50;;;;;;;20.14;42.85;93547.03;4991129;28;20085;-87
2023/06/29 03:51:12;;;;;;;8.35;2.80;;;;;;;20.05;42.54;93550.91;4990903;28;20045;-90
2023/06/29 03:53:37;;;;;;;7.70;2.85;;;;;;;19.75;43.04;93545.53;4974139;28;20092;-86
2023/06/29 03:56:03;;;;;;;5.40;2.70;;;;;;;19.46;43.66;93547.06;5005173;28;20045;-86
2023/06/29 03:58:28;;;;;;;8.48;3.80;;;;;;;19.27;44.19;93546.25;4989249;28;20034;-88
2023/06/29 04:00:54;;;;;;;10.73;5.40;;;;;;;19.18;44.36;93536.38;4991053;28;20046;-88
2023/06/29 04:03:20;;;;;;;13.20;5.15;;;;;;;19.00;45.05;93539.03;5003634;28;20037;-87
2023/06/29 04:05:45;;;;;;;11.55;5.60;;;;;;;18.95;45.45;93534.34;4984753;28;20038;-87
2023/06/29 04:08:10;;;;;;;9.57;4.70;;;;;;;18.84;45.72;93544.13;4973741;28;20097;-87
2023/06/29 04:10:36;;;;;;;19.70;5.95;;;;;;;18.77;45.74;93538.47;5007713;28;20042;-88
2023/06/29 04:13:01;;;;;;;31.17;4.80;;;;;;;18.60;46.79;93541.34;4986867;28;20062;-88
2023/06/29 04:15:27;;;;;;;23.25;5.60;;;;;;;18.52;46.67;93545.84;4990005;28;20515;-88
2023/06/29 04:17:52;;;;;;;15.10;5.97;;;;;;;18.52;46.72;93548.59;4988929;28;20050;-88
2023/06/29 04:20:18;;;;;;;23.88;11.93;;;;;;;18.54;46.79;93545.34;5000159;28;20045;-88
2023/06/29 04:22:43;;;;;;;22.13;11.90;;;;;;;18.54;47.02;93557.03;4977111;28;20041;-87
2023/06/29 04:25:09;;;;;;;34.70;14.10;;;;;;;18.50;46.98;93549.09;4986796;28;20052;-87
2023/06/29 04:27:34;;;;;;;33.72;14.93;;;;;;;18.38;47.29;93546.94;5005616;28;20065;-87
2023/06/29 04:30:00;;;;;;;32.72;16.48;;;;;;;18.37;47.69;93546.19;4988141;28;20048;-89
2023/06/29 04:32:26;;;;;;;38.60;21.75;;;;;;;18.41;47.16;93545.91;4987221;28;20498;-87
2023/06/29 04:34:51;;;;;;;19.52;10.02;;;;;;;18.22;48.77;93545.03;4990497;28;20046;-87
2023/06/29 04:37:17;;;;;;;17.92;8.75;;;;;;;18.21;49.50;93538.06;4990560;28;20050;-88
2023/06/29 04:39:43;;;;;;;44.20;23.20;;;;;;;18.14;49.34;93540.13;4970624;28;20054;-87
2023/06/29 04:42:12;;;;;;;42.92;20.20;;;;;;;18.09;50.63;93538.16;4972495;28;20103;-88
2023/06/29 04:44:38;;;;;;;46.15;22.15;;;;;;;18.11;50.65;93545.84;4991243;28;20120;-88
2023/06/29 04:47:04;;;;;;;40.65;20.17;;;;;;;18.16;50.86;93539.63;4982677;28;20121;-90
2023/06/29 04:49:37;;;;;;;43.50;24.25;;;;;;;18.12;50.73;93539.88;4985733;28;20062;-86
2023/06/29 04:52:03;;;;;;;21.10;9.27;;;;;;;18.08;50.97;93539.41;4984946;28;20049;-87
2023/06/29 04:54:29;;;;;;;21.98;11.20;;;;;;;17.84;51.44;93533.03;4987323;28;20046;-88
2023/06/29 04:56:54;;;;;;;55.10;15.63;;;;;;;17.84;51.44;93539.25;4971930;28;20788;-88
2023/06/29 04:59:23;;;;;;;69.82;26.95;;;;;;;17.90;51.23;93534.50;4989742;28;20053;-87
2023/06/29 05:01:48;;;;;;;82.47;34.95;;;;;;;17.92;51.17;93526.56;4984905;28;20511;-87
2023/06/29 05:04:13;;;;;;;68.97;30.63;;;;;;;17.94;51.02;93539.72;4988644;28;20073;-87
2023/06/29 05:06:39;;;;;;;60.15;22.63;;;;;;;18.01;50.83;93525.50;4994601;28;20096;-89
2023/06/29 05:09:04;;;;;;;58.30;20.40;;;;;;;17.93;50.96;93522.56;4996439;28;20038;-86
2023/06/29 05:11:30;;;;;;;84.65;28.30;;;;;;;18.01;51.14;93525.50;4999374;28;20046;-86
2023/06/29 05:13:55;;;;;;;77.95;25.13;;;;;;;18.03;51.16;93526.47;4956916;28;20050;-88
2023/06/29 05:16:21;;;;;;;154.20;59.00;;;;;;;18.05;50.86;93526.72;5002077;28;20045;-87
2023/06/29 05:18:46;;;;;;;92.47;32.03;;;;;;;18.01;49.61;93525.50;4989883;28;20096;-87
2023/06/29 05:21:15;;;;;;;49.53;20.88;;;;;;;18.05;48.87;93524.00;4988354;28;20042;-88
2023/06/29 05:23:41;;;;;;;37.75;13.63;;;;;;;18.04;50.00;93519.75;5032318;28;20046;-89
2023/06/29 05:26:06;;;;;;;33.10;13.48;;;;;;;18.09;49.51;93526.47;4987794;28;20092;-88
2023/06/29 05:28:32;;;;;;;51.90;19.13;;;;;;;18.12;49.37;93522.72;4972857;28;20042;-87
2023/06/29 05:30:57;;;;;;;37.05;13.25;;;;;;;18.20;48.77;93534.59;5005554;28;20046;-89
2023/06/29 05:33:23;;;;;;;35.15;14.40;;;;;;;18.27;49.82;93520.38;4971048;28;20080;-86
2023/06/29 05:35:48;;;;;;;36.20;12.00;;;;;;;18.23;50.29;93519.91;4989037;28;20042;-87
2023/06/29 05:38:14;;;;;;;39.08;13.98;;;;;;;18.27;50.57;93525.84;4989268;28;20500;-88
2023/06/29 05:40:40;;;;;;;37.00;15.73;;;;;;;18.36;50.14;93516.59;5003773;28;20045;-87
2023/06/29 05:43:05;;;;;;;43.83;12.60;;;;;;;18.34;50.59;93519.09;4989057;28;20306;-89
2023/06/29 05:45:31;;;;;;;31.13;11.63;;;;;;;18.29;51.12;93523.34;4985095;28;20045;-88
2023/06/29 05:47:56;;;;;;;28.50;12.48;;;;;;;18.47;49.82;93525.47;4982280;28;20080;-90
2023/06/29 05:50:22;;;;;;;26.15;11.02;;;;;;;18.56;49.14;93516.22;4972740;28;20069;-87
2023/06/29 05:52:47;;;;;;;18.67;5.32;;;;;;;18.66;48.49;93522.88;4986187;28;20042;-89
2023/06/29 05:55:13;;;;;;;14.60;5.72;;;;;;;18.63;48.18;93518.41;5003544;28;20342;-89
2023/06/29 05:57:38;;;;;;;9.88;4.03;;;;;;;18.71;48.24;93524.09;5003981;28;20092;-89
2023/06/29 06:00:09;;;;;;;8.93;4.05;;;;;;;18.80;48.51;93521.78;5003898;28;20041;-87
2023/06/29 06:02:36;;;;;;;11.43;6.03;;;;;;;18.82;47.82;93516.53;4990616;28;20408;-88
2023/06/29 06:05:03;;;;;;;8.07;3.65;;;;;;;18.96;47.91;93522.88;4973661;28;20507;-89
2023/06/29 06:07:30;;;;;;;16.10;6.38;;;;;;;19.03;47.26;93527.81;4987513;28;20131;-89
2023/06/29 06:09:56;;;;;;;18.65;8.90;;;;;;;19.08;47.93;93529.72;4978803;28;20052;-91
2023/06/29 06:12:22;;;;;;;8.57;3.92;;;;;;;19.17;46.89;93523.19;4982837;28;20034;-90
2023/06/29 06:14:49;;;;;;;3.80;2.90;;;;;;;19.13;47.71;93523.47;4987437;28;20042;-91
2023/06/29 06:17:14;;;;;;;10.25;6.72;;;;;;;19.33;47.53;93518.78;5002565;28;20034;-92
2023/06/29 06:19:40;;;;;;;8.35;3.40;;;;;;;19.29;47.03;93518.31;4977257;28;20261;-90
2023/06/29 06:22:08;;;;;;;3.85;2.92;;;;;;;19.32;46.64;93518.03;4976351;28;20542;-92
2023/06/29 06:24:35;;;;;;;7.55;3.50;;;;;;;19.40;47.22;93520.97;4990708;28;20063;-89
2023/06/29 06:27:01;;;;;;;14.75;5.95;;;;;;;19.51;47.09;93518.88;4989689;28;20073;-88
2023/06/29 06:29:27;;;;;;;9.52;2.88;;;;;;;19.51;46.92;93520.88;4965125;28;20045;-87
2023/06/29 06:31:53;;;;;;;6.70;2.58;;;;;;;19.56;46.73;93513.84;4990441;28;20662;-87
2023/06/29 06:34:18;;;;;;;4.63;2.60;;;;;;;19.58;46.40;93517.56;4985392;28;20045;-86
2023/06/29 06:36:46;;;;;;;12.65;3.22;;;;;;;19.54;46.58;93519.84;4980426;28;20512;-87
2023/06/29 06:39:11;;;;;;;7.57;3.63;;;;;;;19.57;47.17;93513.31;4988183;28;20549;-87
2023/06/29 06:41:37;;;;;;;20.17;4.65;;;;;;;19.58;46.43;93514.81;4986839;28;20220;-86
2023/06/29 06:44:03;;;;;;;16.30;5.72;;;;;;;19.69;46.01;93519.44;4984547;28;20053;-86
2023/06/29 06:46:29;;;;;;;18.75;5.65;;;;;;;19.71;46.19;93517.63;5002745;28;20042;-86
2023/06/29 06:48:54;;;;;;;44.40;24.95;;;;;;;19.78;45.98;93521.81;4986734;28;20058;-86
2023/06/29 06:51:20;;;;;;;147.35;81.78;;;;;;;19.83;45.96;93524.50;5003618;28;20049;-85
2023/06/29 06:53:45;;;;;;;48.65;22.40;;;;;;;19.81;46.39;93510.53;4971659;28;20042;-87
2023/06/29 06:56:11;;;;;;;48.08;18.92;;;;;;;19.85;45.67;93510.25;4991022;28;20077;-88
2023/06/29 06:58:36;;;;;;;50.20;23.15;;;;;;;19.90;45.79;93517.69;4996559;28;20116;-87
2023/06/29 07:01:02;;;;;;;117.38;58.55;;;;;;;19.93;45.87;93513.13;4983804;28;20053;-88
2023/06/29 07:03:28;;;;;;;78.05;36.17;;;;;;;20.00;45.00;93510.56;4975940;28;20042;-89
2023/06/29 07:05:55;;;;;;;32.17;15.93;;;;;;;20.02;44.19;93515.53;4991271;28;20573;-88
2023/06/29 07:08:21;;;;;;;44.17;22.05;;;;;;;20.11;44.51;93512.41;4988993;28;20050;-88
2023/06/29 07:10:46;;;;;;;20.73;10.48;;;;;;;20.13;44.56;93518.13;4975789;28;20073;-88
2023/06/29 07:13:12;;;;;;;58.92;18.00;;;;;;;20.13;44.59;93515.41;4974820;28;20080;-88
2023/06/29 07:15:37;;;;;;;23.38;11.65;;;;;;;20.10;44.34;93503.44;4974917;28;20049;-88
2023/06/29 07:18:03;;;;;;;31.55;10.88;;;;;;;20.15;44.76;93513.59;4991330;28;20128;-88
2023/06/29 07:20:28;;;;;;;33.70;10.70;;;;;;;20.11;44.52;93512.41;4995365;28;20041;-87
2023/06/29 07:22:54;;;;;;;41.88;14.00;;;;;;;20.14;44.88;93508.63;4973243;28;20080;-88
2023/06/29 07:25:20;;;;;;;13.70;5.53;;;;;;;20.11;44.76;93510.41;4990253;28;20075;-87
2023/06/29 07:27:45;;;;;;;10.02;4.28;;;;;;;20.06;44.62;93510.50;5008536;28;20710;-87
2023/06/29 07:30:11;;;;;;;15.00;4.25;;;;;;;20.15;45.02;93510.84;4990320;28;20038;-87
2023/06/29 07:32:37;;;;;;;22.15;5.40;;;;;;;20.14;45.02;93511.38;4974938;28;20041;-87
2023/06/29 07:35:02;;;;;;;10.35;3.00;;;;;;;20.17;45.14;93507.59;4989326;28;20049;-87
2023/06/29 07:37:28;;;;;;;39.10;17.20;;;;;;;20.23;44.83;93508.25;4982498;28;20492;-88
2023/06/29 07:39:53;;;;;;;30.35;8.38;;;;;;;20.30;44.97;93506.91;4968596;28;20072;-87
2023/06/29 07:42:19;;;;;;;11.57;4.18;;;;;;;20.31;45.83;93516.63;4981944;28;20045;-87
2023/06/29 07:44:44;;;;;;;8.93;4.05;;;;;;;20.34;45.06;93505.38;5000683;28;20068;-87
2023/06/29 07:47:10;;;;;;;43.35;18.10;;;;;;;20.40;45.43;93508.03;4987995;28;20047;-88
2023/06/29 07:49:36;;;;;;;46.72;23.63;;;;;;;20.40;45.37;93508.78;4990675;28;20049;-88
2023/06/29 07:52:01;;;;;;;47.42;22.17;;;;;;;20.38;45.53;93497.56;4968661;28;20038;-87
2023/06/29 07:54:27;;;;;;;49.45;23.17;;;;;;;20.43;45.50;93496.00;4980491;28;20779;-87
2023/06/29 07:56:52;;;;;;;51.97;27.55;;;;;;;20.48;45.18;93508.94;4987918;28;20042;-88
2023/06/29 07:59:19;;;;;;;58.35;21.73;;;;;;;20.43;45.86;93499.50;5001331;28;20038;-86
2023/06/29 08:01:46;;;;;;;50.63;22.88;;;;;;;20.50;45.31;93501.66;4988399;28;20088;-88
2023/06/29 08:04:12;;;;;;;41.35;20.00;;;;;;;20.46;44.98;93503.97;5000667;28;20117;-88
2023/06/29 08:06:41;;;;;;;32.72;12.93;;;;;;;20.46;44.69;93495.72;5002998;28;20465;-89
2023/06/29 08:09:07;;;;;;;40.72;17.00;;;;;;;20.46;44.84;93492.22;4985967;28;20046;-86
2023/06/29 08:11:33;;;;;;;28.73;15.88;;;;;;;20.47;44.29;93486.22;4971374;28;20046;-88
2023/06/29 08:13:58;;;;;;;34.42;14.57;;;;;;;20.53;43.86;93497.13;4982701;28;21010;-87
2023/06/29 08:16:24;;;;;;;25.10;13.82;;;;;;;20.50;43.49;93498.91;5001078;28;20081;-88
2023/06/29 08:18:49;;;;;;;31.58;17.95;;;;;;;20.47;43.72;93504.69;5001314;28;20050;-88
2023/06/29 08:21:16;;;;;;;21.60;13.35;;;;;;;20.46;43.33;93498.47;5002804;28;20509;-88
2023/06/29 08:23:41;;;;;;;24.30;12.57;;;;;;;20.42;43.36;93498.00;5004548;28;20145;-87
2023/06/29 08:26:11;;;;;;;29.95;12.05;;;;;;;20.40;43.25;93503.28;4984340;28;21066;-87
2023/06/29 08:28:37;;;;;;;25.45;10.55;;;;;;;20.36;43.36;93482.84;5000870;28;20052;-88
2023/06/29 08:31:02;;;;;;;21.85;11.50;;;;;;;20.40;43.38;93495.06;4991322;28;20054;-88
2023/06/29 08:33:28;;;;;;;21.63;10.98;;;;;;;20.42;43.35;93494.53;4986926;28;20061;-87
2023/06/29 08:35:54;;;;;;;18.48;8.60;;;;;;;20.38;43.67;93492.09;4985572;28;20438;-89
2023/06/29 08:38:19;;;;;;;20.98;6.50;;;;;;;20.39;44.11;93487.34;5004406;28;20125;-87
2023/06/29 08:40:46;;;;;;;11.60;5.72;;;;;;;20.44;44.02;93492.75;4968719;28;20049;-88
2023/06/29 08:43:12;;;;;;;18.88;7.13;;;;;;;20.34;43.94;93488.16;4982719;28;20035;-87
2023/06/29 08:45:39;;;;;;;25.83;10.07;;;;;;;20.39;44.16;93487.34;4964408;28;20053;-87
2023/06/29 08:48:05;;;;;;;46.47;22.92;;;;;;;20.40;44.29;93484.06;4990532;28;20045;-88
2023/06/29 08:50:30;;;;;;;69.95;33.53;;;;;;;20.35;44.19;93479.38;4989079;28;20042;-89
2023/06/29 08:52:57;;;;;;;73.70;37.53;;;;;;;20.34;44.38;93486.16;5000198;28;20042;-89
2023/06/29 08:55:23;;;;;;;25.58;12.90;;;;;;;20.44;44.25;93486.50;4969242;28;20042;-90
2023/06/29 08:57:48;;;;;;;30.08;13.95;;;;;;;20.42;44.36;93487.03;4987288;28;20053;-89
2023/06/29 09:00:14;;;;;;;75.10;32.80;;;;;;;20.45;44.51;93483.25;4989736;28;20026;-88
2023/06/29 09:02:39;;;;;;;35.70;14.27;;;;;;;20.44;45.03;93481.75;5007752;28;20034;-89
2023/06/29 09:05:05;;;;;;;41.80;21.45;;;;;;;20.39;44.73;93488.06;4969028;28;20041;-88
2023/06/29 09:07:31;;;;;;;26.20;13.40;;;;;;;20.43;45.04;93479.53;4991820;28;20100;-89
2023/06/29 09:09:57;;;;;;;25.15;13.00;;;;;;;20.58;44.94;93474.31;4990537;28;20507;-89
2023/06/29 09:12:22;;;;;;;26.98;10.88;;;;;;;20.47;45.08;93479.97;4967482;28;20065;-88
2023/06/29 09:14:48;;;;;;;18.95;10.32;;;;;;;20.41;45.07;93469.06;4988421;28;20057;-88
2023/06/29 09:17:15;;;;;;;18.48;11.30;;;;;;;20.48;45.05;93468.47;4974362;28;20100;-88
2023/06/29 09:19:51;;;;;;;13.68;7.95;;;;;;;20.47;44.80;93464.25;4986867;28;20058;-87
2023/06/29 09:22:18;;;;;;;15.43;9.75;;;;;;;20.53;44.93;93469.66;4991412;28;20548;-88
2023/06/29 09:24:44;;;;;;;19.30;10.35;;;;;;;20.53;44.99;93472.41;5001974;28;20104;-90
2023/06/29 09:27:10;;;;;;;15.20;7.30;;;;;;;20.52;43.83;93470.94;4982552;28;20134;-89
2023/06/29 09:29:36;;;;;;;53.80;23.55;;;;;;;20.53;44.39;93466.91;4990621;28;20059;-91
2023/06/29 09:32:03;;;;;;;75.80;36.30;;;;;;;20.55;44.71;93458.16;4973662;28;20108;-88
2023/06/29 09:34:28;;;;;;;57.58;23.90;;;;;;;20.51;44.68;93466.69;4985547;28;20038;-87
2023/06/29 09:36:54;;;;;;;74.53;28.63;;;;;;;20.57;44.52;93469.34;4988050;28;20049;-87
2023/06/29 09:39:20;;;;;;;63.33;26.02;;;;;;;20.43;44.73;93460.31;4975166;28;20034;-87
2023/06/29 09:41:49;;;;;;;37.20;15.18;;;;;;;20.52;44.29;93462.69;5012763;28;20278;-87
2023/06/29 09:44:21;;;;;;;51.00;24.17;;;;;;;20.53;44.49;93458.69;4988027;28;20038;-90
2023/06/29 09:46:50;;;;;;;44.03;19.15;;;;;;;20.51;44.82;93459.19;4991972;28;20128;-89
2023/06/29 09:49:17;;;;;;;33.58;14.15;;;;;;;20.58;44.93;93452.31;4982129;28;20138;-87
2023/06/29 09:51:43;;;;;;;24.90;11.65;;;;;;;20.58;44.77;93451.59;5006360;28;20069;-90
2023/06/29 09:54:13;;;;;;;41.65;13.40;;;;;;;20.63;44.98;93443.25;4970264;28;20041;-89
2023/06/29 09:56:39;;;;;;;31.60;11.95;;;;;;;20.60;45.37;93458.03;4995914;28;20115;-89
2023/06/29 09:59:04;;;;;;;100.75;17.35;;;;;;;20.65;45.29;93448.25;4998937;28;20113;-88
2023/06/29 10:01:30;;;;;;;18.63;8.40;;;;;;;20.75;44.55;93452.06;4996378;28;20152;-90
2023/06/29 10:03:56;;;;;;;19.85;7.80;;;;;;;20.77;44.89;93447.53;4990144;28;20042;-89
2023/06/29 10:06:36;;;;;;;23.08;9.43;;;;;;;20.75;44.74;93443.84;4988636;28;20041;-90
2023/06/29 10:09:04;;;;;;;16.90;6.78;;;;;;;20.74;44.10;93445.09;4989259;28;20044;-94
2023/06/29 10:11:31;;;;;;;14.38;6.55;;;;;;;20.70;45.38;93439.16;4979989;28;20053;-91
2023/06/29 10:14:01;;;;;;;11.88;5.78;;;;;;;20.78;44.96;93440.03;4975697;28;20039;-90
2023/06/29 10:16:27;;;;;;;11.40;4.43;;;;;;;20.79;44.35;93436.75;4975066;28;20038;-89
2023/06/29 10:18:54;;;;;;;10.85;5.32;;;;;;;20.81;44.78;93439.72;5007983;28;20404;-88
2023/06/29 10:21:20;;;;;;;10.73;3.60;;;;;;;20.94;44.45;93443.75;5004572;28;20038;-89
2023/06/29 10:23:45;;;;;;;9.70;4.40;;;;;;;20.88;44.99;93433.59;4987931;28;20088;-90
2023/06/29 10:26:11;;;;;;;11.32;4.40;;;;;;;20.90;45.15;93430.31;5005251;28;20100;-89
2023/06/29 10:28:36;;;;;;;7.15;3.78;;;;;;;20.82;45.04;93423.97;4989972;28;20050;-90
2023/06/29 10:31:02;;;;;;;6.00;3.58;;;;;;;20.78;45.28;93421.56;4983496;28;20050;-89
2023/06/29 10:33:27;;;;;;;6.22;3.28;;;;;;;20.76;45.12;93429.56;4971596;28;20054;-90
2023/06/29 10:35:59;;;;;;;4.20;3.72;;;;;;;20.91;44.26;93422.81;4981803;28;20053;-90
2023/06/29 10:38:32;;;;;;;8.10;3.80;;;;;;;20.87;44.54;93425.88;5007886;28;20511;-90
2023/06/29 10:40:57;;;;;;;9.93;3.15;;;;;;;20.86;44.70;93418.91;4985179;28;20041;-89
2023/06/29 10:43:27;;;;;;;4.15;2.83;;;;;;;20.84;45.12;93411.19;4990044;28;20041;-90
2023/06/29 10:45:53;;;;;;;4.75;3.25;;;;;;;20.99;44.11;93416.19;5007580;28;20033;-89
2023/06/29 10:48:18;;;;;;;13.55;3.47;;;;;;;21.00;44.92;93403.19;4973697;28;20076;-89
2023/06/29 10:50:45;;;;;;;7.03;3.30;;;;;;;21.10;44.57;93412.47;4990139;28;20415;-89
2023/06/29 10:53:11;;;;;;;5.57;3.78;;;;;;;21.15;44.26;93412.38;4989115;28;20118;-89
2023/06/29 10:55:42;;;;;;;9.65;3.45;;;;;;;21.06;44.42;93412.03;4971722;28;20030;-90
2023/06/29 10:58:19;;;;;;;;;;;;;;;21.05;44.66;93403.06;4977429;28;20050;-89
2023/06/29 11:00:45;;;;;;;25.15;12.32;;;;;;;21.09;43.65;93392.50;5024255;28;19921;-89
2023/06/29 11:03:11;;;;;;;60.55;16.45;;;;;;;21.08;44.19;93399.25;4977634;28;20492;-89
2023/06/29 11:05:37;;;;;;;36.60;15.35;;;;;;;21.05;44.21;93391.31;4976120;28;20049;-90
2023/06/29 11:08:04;;;;;;;33.97;14.48;;;;;;;21.17;44.31;93398.09;4981904;28;20045;-90
2023/06/29 11:10:29;;;;;;;54.40;29.10;;;;;;;21.14;44.52;93401.91;4994630;28;20042;-90
2023/06/29 11:12:55;;;;;;;36.05;13.40;;;;;;;21.22;44.23;93389.00;4964912;28;20108;-91
2023/06/29 11:15:23;;;;;;;43.80;21.40;;;;;;;21.13;44.95;93387.41;4998427;28;20042;-90
2023/06/29 11:17:50;;;;;;;41.28;17.50;;;;;;;21.06;44.88;93382.56;4972432;28;20515;-89
2023/06/29 11:20:16;;;;;;;44.40;18.17;;;;;;;21.06;44.93;93381.81;5008015;28;20042;-90